Terminal Aerodrome Forecast
Issued by NWS

Home | Current Version | Previous Version | Text Only | Print | Product List | Glossary On
Versions: 1 2 3 4 5 6 7 8 9 10 11 12
000
FTUS42 TJSJ 241120
TAFJBQ
TAF
TJBQ 241120Z 2412/2512 12003KT P6SM FEW035
     FM241430 07012KT P6SM SCT030
     FM241800 10006KT P6SM VCTS SCT025CB BKN050
     FM242330 12002KT P6SM FEW030 SCT050 SCT100=

USA.gov is the U.S. government's official web portal to all federal, state and local government web resources and services.